Current | Forecast
Updated: 7:00 AM JST on October 17, 2017
Observed at Nagoya / Chubu, Japan
Temperature 59°F
Humidity 88%
Dew Point 55°F
Wind North at 14 mph
Pressure 30.15 in (Steady)
Conditions Light Rain
Visibility 4.3 miles
UV 0 out of 16
Clouds (FEW) : 800 ft
Mostly Cloudy (BKN) : 4000 ft
Mostly Cloudy (BKN) : 7000 ft
Yesterday's Maximum 64°F
Yesterday's Minimum 59°F approx.
Yesterday's Heating Degree Days 3 approx.
Sunrise5:59 AM JST
Sunset5:16 PM JST
Moon Rise3:07 AM JST
Moon Set4:04 PM JST
Moon PhaseMoon Phase
Waning Crescent
Raw METARMETAR RJGG 162200Z 36012KT 7000 -RA FEW008 BKN040 BKN070 15/13 Q1021 TEMPO 4000 -RA BR FEW006 BKN012


Monday
. High: 69° F.
Tuesday
. High: 69° F.
Wednesday
. High: 69° F.
Thursday
. High: 68° F.
Friday
. High: 69° F.
Saturday
. High: 69° F.
Sunday
. High: 71° F.
Monday
. High: 71° F.

Units: English | Metric

Find the Weather for any City, State or Zipcode, or Country:

U.S. State List | Severe Weather | Tropical Storms | Ski Conditions
United States | Canada | Central America | South America | Asia | Europe | Australia | Africa | Islands

Weather Underground

© Copyright 2017
The Weather Company, LLC